createdAt,value
2019-01-31T00:03:54.370Z,97.20
2019-01-31T00:08:46.729Z,95.80
2019-01-31T00:13:37.243Z,96.00
2019-01-31T00:18:28.530Z,96.30
2019-01-31T00:23:20.091Z,96.60
2019-01-31T00:28:11.334Z,96.40
2019-01-31T00:33:02.835Z,95.80
2019-01-31T00:37:54.220Z,94.90
2019-01-31T00:42:45.551Z,96.60
2019-01-31T00:47:36.941Z,97.20
2019-01-31T00:52:28.493Z,97.40
2019-01-31T00:57:19.832Z,96.70
2019-01-31T01:02:11.172Z,97.60
2019-01-31T01:07:02.536Z,97.10
2019-01-31T01:11:53.938Z,95.70
2019-01-31T01:16:45.352Z,96.50
2019-01-31T01:21:36.771Z,96.30
2019-01-31T01:26:28.094Z,98.10
2019-01-31T01:31:19.514Z,97.80
2019-01-31T01:36:10.973Z,96.60
2019-01-31T01:41:02.331Z,96.30
2019-01-31T01:45:53.806Z,96.10
2019-01-31T01:50:45.126Z,96.10
2019-01-31T01:55:36.496Z,97.10
2019-01-31T02:00:30.059Z,95.80
2019-01-31T02:05:21.494Z,95.80
2019-01-31T02:10:12.929Z,95.80
2019-01-31T02:15:04.366Z,98.10
2019-01-31T02:19:55.774Z,98.50
2019-01-31T02:24:47.070Z,96.10
2019-01-31T02:29:38.594Z,94.70
2019-01-31T02:34:29.925Z,94.20
2019-01-31T02:39:21.347Z,94.90
2019-01-31T02:44:12.696Z,94.20
2019-01-31T02:49:06.349Z,94.60
2019-01-31T02:53:57.800Z,94.00
2019-01-31T02:58:49.232Z,94.40
2019-01-31T03:03:40.525Z,94.80
2019-01-31T03:08:31.970Z,94.30
2019-01-31T03:13:23.406Z,94.30
2019-01-31T03:18:14.809Z,93.90
2019-01-31T03:23:08.349Z,93.90
2019-01-31T03:28:02.024Z,93.60
2019-01-31T03:32:53.673Z,93.50
2019-01-31T03:37:44.857Z,92.60
2019-01-31T03:42:36.496Z,93.40
2019-01-31T03:47:27.681Z,91.80
2019-01-31T03:52:19.090Z,92.50
2019-01-31T03:57:10.458Z,93.20
2019-01-31T04:02:01.839Z,92.80
2019-01-31T04:06:53.191Z,92.80
2019-01-31T04:11:44.790Z,92.80
2019-01-31T04:16:36.006Z,93.40
2019-01-31T04:21:27.443Z,93.30
2019-01-31T04:26:18.735Z,93.40
2019-01-31T04:31:10.216Z,93.20
2019-01-31T04:36:01.560Z,93.70
2019-01-31T04:40:52.977Z,93.70
2019-01-31T04:45:46.566Z,94.80
2019-01-31T04:50:38.073Z,94.60
2019-01-31T04:55:31.606Z,94.10
2019-01-31T05:00:25.207Z,93.90
2019-01-31T05:05:16.707Z,94.90
2019-01-31T05:10:10.309Z,96.00
2019-01-31T05:15:01.727Z,96.30
2019-01-31T05:19:53.232Z,97.20
2019-01-31T05:24:44.531Z,98.80
2019-01-31T05:29:35.945Z,97.70
2019-01-31T05:34:29.548Z,96.20
2019-01-31T05:39:21.006Z,94.70
2019-01-31T05:44:12.358Z,92.50
2019-01-31T05:49:03.845Z,89.90
2019-01-31T05:53:55.180Z,89.90
2019-01-31T05:58:46.526Z,88.90
2019-01-31T06:03:40.167Z,86.40
2019-01-31T06:08:31.676Z,85.30
2019-01-31T06:13:22.975Z,84.00
2019-01-31T06:18:14.364Z,82.50
2019-01-31T06:23:05.691Z,80.00
2019-01-31T06:27:59.397Z,84.00
2019-01-31T06:32:50.851Z,87.90
2019-01-31T06:37:42.221Z,89.80
2019-01-31T06:42:33.630Z,93.10
2019-01-31T06:47:25.031Z,94.30
2019-01-31T06:52:16.357Z,95.10
2019-01-31T06:57:10.122Z,95.50
2019-01-31T07:02:01.582Z,96.00
2019-01-31T07:06:53.028Z,97.00
2019-01-31T07:11:44.326Z,96.40
2019-01-31T07:16:35.708Z,95.70
2019-01-31T07:21:27.128Z,95.70
2019-01-31T07:26:18.601Z,95.00
2019-01-31T07:31:09.814Z,93.90
2019-01-31T07:36:01.285Z,94.20
2019-01-31T07:40:52.645Z,94.70
2019-01-31T07:45:44.077Z,93.20
2019-01-31T07:50:35.382Z,94.00
2019-01-31T07:55:26.810Z,94.80
2019-01-31T08:00:18.162Z,95.10
2019-01-31T08:05:09.635Z,95.70
2019-01-31T08:10:00.964Z,94.80
2019-01-31T08:14:52.422Z,95.40
2019-01-31T08:19:43.710Z,95.80
2019-01-31T08:24:35.244Z,96.90
2019-01-31T08:29:26.534Z,96.50
2019-01-31T08:34:17.876Z,97.80
2019-01-31T08:39:11.570Z,96.50
2019-01-31T08:44:05.229Z,95.60
2019-01-31T08:48:56.716Z,92.90
2019-01-31T08:53:48.110Z,93.20
2019-01-31T08:58:41.768Z,90.50
2019-01-31T09:03:33.319Z,89.80
2019-01-31T09:08:24.552Z,88.90
2019-01-31T09:13:15.989Z,87.30
2019-01-31T09:18:07.424Z,88.00
2019-01-31T09:22:59.025Z,88.60
2019-01-31T09:27:50.270Z,84.40
2019-01-31T09:32:41.732Z,84.90
2019-01-31T09:37:33.090Z,82.60
2019-01-31T09:42:27.264Z,82.70
2019-01-31T09:47:15.874Z,75.50
2019-01-31T09:52:07.401Z,75.40
2019-01-31T09:56:58.674Z,76.40
2019-01-31T10:01:52.986Z,77.80
2019-01-31T10:06:46.002Z,76.00
2019-01-31T10:11:37.481Z,75.30
2019-01-31T10:16:28.913Z,69.00
2019-01-31T10:21:20.360Z,75.30
2019-01-31T10:26:11.581Z,73.50
2019-01-31T10:31:03.032Z,75.90
2019-01-31T10:35:54.313Z,74.80
2019-01-31T10:40:45.847Z,70.00
2019-01-31T10:45:37.096Z,68.40
2019-01-31T10:50:28.602Z,64.60
2019-01-31T10:55:19.927Z,66.40
2019-01-31T11:00:18.029Z,69.70
2019-01-31T11:05:09.475Z,70.40
2019-01-31T11:10:00.911Z,65.90
2019-01-31T11:14:52.364Z,67.20
2019-01-31T11:19:44.051Z,67.50
2019-01-31T11:24:35.082Z,67.60
2019-01-31T11:29:26.517Z,67.60
2019-01-31T11:34:18.043Z,63.90
2019-01-31T11:39:09.466Z,64.90
2019-01-31T11:44:00.798Z,64.20
2019-01-31T11:48:52.243Z,61.70
2019-01-31T11:53:43.541Z,64.00
2019-01-31T11:58:35.023Z,62.20
2019-01-31T12:03:26.316Z,60.50
2019-01-31T12:08:17.818Z,58.70
2019-01-31T12:13:09.208Z,60.00
2019-01-31T12:18:00.795Z,58.30
2019-01-31T12:22:51.941Z,55.00
2019-01-31T12:27:43.375Z,55.30
2019-01-31T12:32:34.695Z,51.80
2019-01-31T12:37:26.275Z,52.40
2019-01-31T12:42:17.573Z,51.60
2019-01-31T12:47:09.053Z,50.80
2019-01-31T12:52:00.364Z,50.50
2019-01-31T12:56:51.803Z,49.60
2019-01-31T13:01:43.168Z,50.80
2019-01-31T13:06:34.472Z,51.80
2019-01-31T13:11:25.988Z,48.90
2019-01-31T13:16:17.311Z,50.80
2019-01-31T13:21:08.695Z,50.40
2019-01-31T13:26:00.067Z,51.70
2019-01-31T13:30:51.552Z,47.20
2019-01-31T13:35:42.870Z,42.50
2019-01-31T13:40:34.195Z,43.80
2019-01-31T13:45:27.836Z,44.90
2019-01-31T13:50:19.300Z,43.30
2019-01-31T13:55:10.721Z,43.30
2019-01-31T14:00:04.222Z,41.60
2019-01-31T14:04:55.759Z,39.60
2019-01-31T14:09:47.110Z,39.40
2019-01-31T14:14:38.635Z,43.60
2019-01-31T14:19:29.891Z,44.80
2019-01-31T14:24:21.297Z,38.70
2019-01-31T14:29:12.719Z,41.30
2019-01-31T14:34:04.048Z,43.50
2019-01-31T14:38:55.528Z,39.90
2019-01-31T14:43:46.817Z,41.60
2019-01-31T14:48:40.571Z,36.00
2019-01-31T14:53:32.024Z,38.10
2019-01-31T14:58:23.401Z,36.50
2019-01-31T15:03:14.799Z,38.80
2019-01-31T15:08:06.186Z,38.80
2019-01-31T15:12:57.668Z,38.00
2019-01-31T15:17:48.987Z,38.00
2019-01-31T15:22:40.356Z,37.80
2019-01-31T15:27:31.828Z,38.40
2019-01-31T15:32:23.712Z,40.20
2019-01-31T15:37:14.687Z,41.30
2019-01-31T15:42:05.896Z,45.30
2019-01-31T15:46:57.405Z,46.60
2019-01-31T15:51:48.781Z,49.50
2019-01-31T15:56:40.137Z,51.90
2019-01-31T16:01:31.481Z,54.00
2019-01-31T16:06:22.929Z,56.50
2019-01-31T16:11:14.355Z,59.30
2019-01-31T16:16:05.792Z,64.90
2019-01-31T16:20:57.032Z,67.40
2019-01-31T16:25:50.656Z,70.00
2019-01-31T16:30:42.135Z,76.00
2019-01-31T16:35:33.546Z,76.50
2019-01-31T16:40:24.864Z,76.10
2019-01-31T16:45:16.343Z,78.40
2019-01-31T16:50:07.966Z,80.90
2019-01-31T16:54:59.122Z,82.50
2019-01-31T16:59:50.401Z,84.80
2019-01-31T17:04:41.840Z,85.40
2019-01-31T17:09:33.276Z,86.50
2019-01-31T17:19:18.247Z,87.20
2019-01-31T17:24:09.656Z,87.10
2019-01-31T17:29:01.066Z,86.80
2019-01-31T17:33:52.524Z,89.60
2019-01-31T17:43:35.251Z,89.50
2019-01-31T17:48:26.574Z,88.90
2019-01-31T17:53:18.048Z,89.70
2019-01-31T17:58:11.600Z,89.70
2019-01-31T18:03:05.270Z,90.70
2019-01-31T18:07:57.010Z,90.70
2019-01-31T18:12:48.171Z,89.50
2019-01-31T18:17:39.430Z,90.90
2019-01-31T18:22:33.049Z,90.20
2019-01-31T18:27:24.565Z,90.00
2019-01-31T18:32:18.073Z,89.60
2019-01-31T18:37:09.490Z,89.20
2019-01-31T18:42:00.978Z,88.60
2019-01-31T18:46:54.543Z,88.80
2019-01-31T18:51:48.196Z,89.30
2019-01-31T18:56:39.719Z,90.10
2019-01-31T19:01:31.180Z,89.60
2019-01-31T19:06:22.435Z,86.30
2019-01-31T19:11:14.258Z,84.90
2019-01-31T19:16:06.277Z,85.20
2019-01-31T19:20:56.694Z,86.40
2019-01-31T19:25:48.124Z,86.80
2019-01-31T19:30:39.571Z,85.20
2019-01-31T19:35:30.922Z,83.90
2019-01-31T19:40:24.490Z,84.30
2019-01-31T19:45:18.147Z,84.90
2019-01-31T19:50:09.604Z,84.10
2019-01-31T19:55:01.166Z,84.70
2019-01-31T19:59:52.455Z,83.90
2019-01-31T20:04:45.984Z,82.60
2019-01-31T20:09:37.506Z,82.20
2019-01-31T20:14:31.071Z,80.00
2019-01-31T20:19:22.675Z,79.70
2019-01-31T20:24:13.944Z,80.80
2019-01-31T20:29:05.319Z,82.70
2019-01-31T20:33:56.656Z,80.60
2019-01-31T20:38:50.375Z,83.00
2019-01-31T20:43:41.837Z,82.30
2019-01-31T20:48:35.529Z,82.50
2019-01-31T20:53:27.017Z,84.20
2019-01-31T20:58:18.441Z,84.80
2019-01-31T21:03:09.798Z,83.40
2019-01-31T21:08:01.268Z,84.10
2019-01-31T21:12:52.596Z,84.60
2019-01-31T21:17:44.023Z,83.90
2019-01-31T21:22:35.464Z,84.70
2019-01-31T21:27:29.191Z,85.30
2019-01-31T21:32:22.800Z,85.90
2019-01-31T21:37:16.501Z,87.80
2019-01-31T21:42:08.619Z,88.40
2019-01-31T21:47:03.879Z,86.90
2019-01-31T21:51:50.781Z,89.00
2019-01-31T21:56:42.259Z,89.70
2019-01-31T22:01:33.686Z,89.80
2019-01-31T22:06:25.034Z,90.20
2019-01-31T22:11:16.371Z,88.60
2019-01-31T22:16:07.811Z,90.40
2019-01-31T22:20:59.215Z,87.90
2019-01-31T22:25:50.606Z,88.70
2019-01-31T22:30:41.983Z,89.60
2019-01-31T22:35:33.492Z,88.70
2019-01-31T22:40:24.820Z,88.00
2019-01-31T22:45:16.238Z,89.70
2019-01-31T22:50:07.589Z,90.30
2019-01-31T22:54:59.136Z,91.00
2019-01-31T22:59:50.441Z,80.70
2019-01-31T23:04:43.997Z,79.70
2019-01-31T23:09:35.439Z,79.60
2019-01-31T23:14:26.971Z,76.60
2019-01-31T23:19:18.287Z,78.20
2019-01-31T23:24:09.692Z,77.10
2019-01-31T23:29:01.007Z,73.60
2019-01-31T23:33:52.564Z,74.20
2019-01-31T23:38:43.958Z,75.20
2019-01-31T23:43:35.418Z,68.70
2019-01-31T23:48:26.694Z,68.70
2019-01-31T23:53:18.236Z,69.60
2019-01-31T23:58:09.565Z,70.00
